createdAt,value
2019-04-25T00:00:55.563Z,12.29
2019-04-25T00:07:02.271Z,12.20
2019-04-25T00:13:08.589Z,12.11
2019-04-25T00:19:14.661Z,12.14
2019-04-25T00:25:46.756Z,12.09
2019-04-25T00:31:52.875Z,12.08
2019-04-25T00:37:59.443Z,11.99
2019-04-25T00:44:05.752Z,11.94
2019-04-25T00:50:12.009Z,11.82
2019-04-25T00:56:18.394Z,11.73
2019-04-25T01:02:47.346Z,11.62
2019-04-25T01:08:54.559Z,11.40
2019-04-25T01:15:01.647Z,11.30
2019-04-25T01:21:07.609Z,11.29
2019-04-25T01:27:13.607Z,11.14
2019-04-25T01:33:21.318Z,11.04
2019-04-25T01:39:40.564Z,11.07
2019-04-25T01:45:48.085Z,11.04
2019-04-25T01:51:54.449Z,10.86
2019-04-25T01:58:03.742Z,10.72
2019-04-25T02:04:09.887Z,10.64
2019-04-25T02:10:15.972Z,10.72
2019-04-25T02:16:23.782Z,10.71
2019-04-25T02:22:29.578Z,10.74
2019-04-25T02:28:35.698Z,10.77
2019-04-25T02:34:41.683Z,10.80
2019-04-25T02:40:47.507Z,10.87
2019-04-25T02:47:14.936Z,10.86
2019-04-25T02:53:37.392Z,10.89
2019-04-25T02:59:45.105Z,10.96
2019-04-25T03:05:51.204Z,10.90
2019-04-25T03:11:58.776Z,11.03
2019-04-25T03:18:08.819Z,11.11
2019-04-25T03:24:13.976Z,11.14
2019-04-25T03:30:20.108Z,11.26
2019-04-25T03:36:25.995Z,11.32
2019-04-25T03:42:31.978Z,11.28
2019-04-25T03:48:38.043Z,11.26
2019-04-25T03:54:43.739Z,11.25
2019-04-25T04:00:51.403Z,11.24
2019-04-25T04:06:57.166Z,11.23
2019-04-25T04:13:06.282Z,11.23
2019-04-25T04:19:13.117Z,11.29
2019-04-25T04:25:20.645Z,11.36
2019-04-25T04:31:26.653Z,11.37
2019-04-25T04:37:33.243Z,11.34
2019-04-25T04:43:39.302Z,11.29
2019-04-25T04:49:44.997Z,11.43
2019-04-25T04:55:50.699Z,11.58
2019-04-25T05:02:15.053Z,11.74
2019-04-25T05:08:25.335Z,11.86
2019-04-25T05:14:31.099Z,12.02
2019-04-25T05:20:36.819Z,12.22
2019-04-25T05:26:44.104Z,12.44
2019-04-25T05:32:49.928Z,12.62
2019-04-25T05:39:01.593Z,12.64
2019-04-25T05:45:07.959Z,12.77
2019-04-25T05:51:14.026Z,12.84
2019-04-25T05:57:19.745Z,13.02
2019-04-25T06:03:26.367Z,13.23
2019-04-25T06:09:55.084Z,13.33
2019-04-25T06:16:08.520Z,13.45
2019-04-25T06:22:19.948Z,13.68
2019-04-25T06:28:28.611Z,13.94
2019-04-25T06:34:36.435Z,14.20
2019-04-25T06:40:43.729Z,14.39
2019-04-25T06:47:01.429Z,14.53
2019-04-25T06:53:08.760Z,14.64
2019-04-25T06:59:14.593Z,14.71
2019-04-25T07:05:31.154Z,14.77
2019-04-25T07:11:30.388Z,14.89
2019-04-25T07:17:37.076Z,15.04
2019-04-25T07:23:46.007Z,15.23
2019-04-25T07:30:08.673Z,15.45
2019-04-25T07:36:15.637Z,15.57
2019-04-25T07:42:21.616Z,15.70
2019-04-25T07:48:28.053Z,15.70
2019-04-25T07:54:35.171Z,15.68
2019-04-25T08:00:41.513Z,15.78
2019-04-25T08:06:47.292Z,15.94
2019-04-25T08:12:53.672Z,16.10
2019-04-25T08:19:00.681Z,16.21
2019-04-25T08:25:07.909Z,16.35
2019-04-25T08:31:13.992Z,16.34
2019-04-25T08:37:21.157Z,16.58
2019-04-25T08:43:27.153Z,16.70
2019-04-25T08:49:46.209Z,16.63
2019-04-25T08:56:03.877Z,16.68
2019-04-25T09:02:27.546Z,16.83
2019-04-25T09:08:35.972Z,17.02
2019-04-25T09:14:44.697Z,17.08
2019-04-25T09:20:49.945Z,17.17
2019-04-25T09:26:56.344Z,17.48
2019-04-25T09:33:03.093Z,17.72
2019-04-25T09:39:27.398Z,18.16
2019-04-25T09:45:53.292Z,18.49
2019-04-25T09:52:03.520Z,18.74
2019-04-25T09:58:18.965Z,18.92
2019-04-25T10:04:24.909Z,19.01
2019-04-25T10:10:32.797Z,19.19
2019-04-25T10:16:39.018Z,19.30
2019-04-25T10:22:45.665Z,19.57
2019-04-25T10:28:52.539Z,19.50
2019-04-25T10:34:58.350Z,19.39
2019-04-25T10:41:04.331Z,19.33
2019-04-25T10:47:10.149Z,19.17
2019-04-25T10:53:17.080Z,19.53
2019-04-25T10:59:23.636Z,19.70
2019-04-25T11:05:30.170Z,20.06
2019-04-25T11:11:37.615Z,20.45
2019-04-25T11:17:45.781Z,20.84
2019-04-25T11:23:51.554Z,21.00
2019-04-25T11:30:08.404Z,21.20
2019-04-25T11:36:05.527Z,21.22
2019-04-25T11:42:33.894Z,21.21
2019-04-25T11:48:39.801Z,21.16
2019-04-25T11:54:46.869Z,21.23
2019-04-25T12:00:57.632Z,21.48
2019-04-25T12:07:03.837Z,21.80
2019-04-25T12:13:09.211Z,21.99
2019-04-25T12:19:15.355Z,21.97
2019-04-25T12:25:21.575Z,22.13
2019-04-25T12:31:27.691Z,22.30
2019-04-25T12:37:33.769Z,22.49
2019-04-25T12:43:43.893Z,22.65
2019-04-25T12:49:50.643Z,22.71
2019-04-25T12:55:58.421Z,23.08
2019-04-25T13:02:04.997Z,23.26
2019-04-25T13:08:10.833Z,23.14
2019-04-25T13:14:17.515Z,23.25
2019-04-25T13:20:24.046Z,23.50
2019-04-25T13:26:34.092Z,23.44
2019-04-25T13:33:01.978Z,23.33
2019-04-25T13:39:16.893Z,23.83
2019-04-25T13:45:23.318Z,24.08
2019-04-25T13:51:29.663Z,24.34
2019-04-25T13:57:35.879Z,24.34
2019-04-25T14:03:42.292Z,24.19
2019-04-25T14:09:48.519Z,24.07
2019-04-25T14:16:04.840Z,23.90
2019-04-25T14:22:10.999Z,24.03
2019-04-25T14:28:17.050Z,24.07
2019-04-25T14:34:25.050Z,23.99
2019-04-25T14:40:31.457Z,23.94
2019-04-25T14:46:37.890Z,23.99
2019-04-25T14:52:43.875Z,23.90
2019-04-25T14:58:50.036Z,23.60
2019-04-25T15:04:56.223Z,23.27
2019-04-25T15:11:02.566Z,23.01
2019-04-25T15:17:09.888Z,22.79
2019-04-25T15:23:15.950Z,22.71
2019-04-25T15:29:21.769Z,22.62
2019-04-25T15:36:01.355Z,22.67
2019-04-25T15:42:27.378Z,22.69
2019-04-25T15:48:33.916Z,22.63
2019-04-25T15:54:39.802Z,22.65
2019-04-25T16:00:46.169Z,22.55
2019-04-25T16:06:52.621Z,22.46
2019-04-25T16:12:58.436Z,22.34
2019-04-25T16:19:05.827Z,22.29
2019-04-25T16:25:11.733Z,22.24
2019-04-25T16:31:20.598Z,22.18
2019-04-25T16:37:27.947Z,22.09
2019-04-25T16:43:38.997Z,21.64
2019-04-25T16:49:45.811Z,21.07
2019-04-25T16:55:51.728Z,20.92
2019-04-25T17:01:59.252Z,20.77
2019-04-25T17:08:05.897Z,20.59
2019-04-25T17:14:27.011Z,20.34
2019-04-25T17:20:39.713Z,20.35
2019-04-25T17:26:46.356Z,20.37
2019-04-25T17:33:05.192Z,20.34
2019-04-25T17:39:28.717Z,20.24
2019-04-25T17:45:34.833Z,20.07
2019-04-25T17:51:40.821Z,19.76
2019-04-25T17:57:46.946Z,19.42
2019-04-25T18:03:53.778Z,19.21
2019-04-25T18:09:59.581Z,18.99
2019-04-25T18:16:17.371Z,18.80
2019-04-25T18:22:44.803Z,18.66
2019-04-25T18:28:53.088Z,18.36
2019-04-25T18:35:07.512Z,18.15
2019-04-25T18:41:36.336Z,18.16
2019-04-25T18:47:42.502Z,18.05
2019-04-25T18:54:04.666Z,17.90
2019-04-25T19:00:42.190Z,17.93
2019-04-25T19:06:55.291Z,17.80
2019-04-25T19:12:56.075Z,17.61
2019-04-25T19:19:03.851Z,17.43
2019-04-25T19:25:10.407Z,17.18
2019-04-25T19:31:16.285Z,16.68
2019-04-25T19:37:22.540Z,16.45
2019-04-25T19:43:47.322Z,17.49
2019-04-25T19:49:53.200Z,16.60
2019-04-25T19:55:58.984Z,16.27
2019-04-25T20:02:09.850Z,16.08
2019-04-25T20:08:37.537Z,16.08
2019-04-25T20:14:44.562Z,15.98
2019-04-25T20:20:52.220Z,15.89
2019-04-25T20:26:58.314Z,15.68
2019-04-25T20:33:04.188Z,15.50
2019-04-25T20:39:10.542Z,15.51
2019-04-25T20:45:17.538Z,15.50
2019-04-25T20:51:23.364Z,15.42
2019-04-25T20:57:29.166Z,15.26
2019-04-25T21:03:35.470Z,15.29
2019-04-25T21:09:41.855Z,15.27
2019-04-25T21:16:06.421Z,15.24
2019-04-25T21:22:14.029Z,15.14
2019-04-25T21:28:22.588Z,15.10
2019-04-25T21:34:31.784Z,15.07
2019-04-25T21:40:54.741Z,14.99
2019-04-25T21:47:01.897Z,14.88
2019-04-25T21:53:08.283Z,14.76
2019-04-25T21:59:14.477Z,14.70
2019-04-25T22:05:20.491Z,14.72
2019-04-25T22:11:26.656Z,14.67
2019-04-25T22:17:33.833Z,14.51
2019-04-25T22:23:40.075Z,14.36
2019-04-25T22:29:47.801Z,14.26
2019-04-25T22:36:06.084Z,14.23
2019-04-25T22:42:31.087Z,14.26
2019-04-25T22:48:49.413Z,14.35
2019-04-25T22:54:55.271Z,14.27
2019-04-25T23:01:03.137Z,14.19
2019-04-25T23:07:10.068Z,14.19
2019-04-25T23:13:15.924Z,14.09
2019-04-25T23:19:21.837Z,13.85
2019-04-25T23:25:33.128Z,13.68
2019-04-25T23:31:39.685Z,13.59
2019-04-25T23:37:46.291Z,13.53
2019-04-25T23:43:52.173Z,13.71
2019-04-25T23:49:58.273Z,13.77
2019-04-25T23:56:04.059Z,13.82
